Time;durP1;ratioP1;P1;durP2;ratioP2;P2;SDS_P1;SDS_P2;PMS_P1;PMS_P2;Temp;Humidity;BMP_temperature;BMP_pressure;BME280_temperature;BME280_humidity;BME280_pressure;Samples;Min_cycle;Max_cycle;Signal;HPM_P1;HPM_P2
2021/12/06 00:02:04;;;;;;;6.47;5.78;;;;;;;;;;4977007;28;20196;-79
2021/12/06 00:04:33;;;;;;;7.25;6.38;;;;;;;;;;4977099;28;20517;-77
2021/12/06 00:07:00;;;;;;;7.45;6.10;;;;;;;;;;4991969;28;20184;-79
2021/12/06 00:09:29;;;;;;;10.27;6.65;;;;;;;;;;4976684;28;20703;-79
2021/12/06 00:12:00;;;;;;;8.70;5.88;;;;;;;;;;4975722;28;20207;-79
2021/12/06 00:14:28;;;;;;;6.90;5.85;;;;;;;;;;4976901;28;20210;-79
2021/12/06 00:16:59;;;;;;;9.77;6.05;;;;;;;;;;4991906;28;20198;-77
2021/12/06 00:19:26;;;;;;;8.25;6.38;;;;;;;;;;4976695;28;20267;-78
2021/12/06 00:21:52;;;;;;;7.82;6.30;;;;;;;;;;4976856;28;20196;-76
2021/12/06 00:24:18;;;;;;;6.90;5.80;;;;;;;;;;4976713;28;20184;-78
2021/12/06 00:26:44;;;;;;;10.63;5.85;;;;;;;;;;4991575;28;20193;-77
2021/12/06 00:29:10;;;;;;;7.57;6.68;;;;;;;;;;4976491;28;20650;-76
2021/12/06 00:31:37;;;;;;;7.95;6.32;;;;;;;;;;4976482;28;20188;-76
2021/12/06 00:34:06;;;;;;;6.30;5.70;;;;;;;;;;4975440;28;20242;-76
2021/12/06 00:36:33;;;;;;;6.28;5.50;;;;;;;;;;4976326;28;20172;-78
2021/12/06 00:39:00;;;;;;;10.60;6.75;;;;;;;;;;4976448;28;20176;-79
2021/12/06 00:41:27;;;;;;;8.73;5.90;;;;;;;;;;4976253;28;20565;-77
2021/12/06 00:43:53;;;;;;;12.73;7.18;;;;;;;;;;4976500;28;20301;-77
2021/12/06 00:46:20;;;;;;;7.43;5.97;;;;;;;;;;4976255;28;20215;-80
2021/12/06 00:48:46;;;;;;;9.10;6.93;;;;;;;;;;4975206;28;20183;-79
2021/12/06 00:51:14;;;;;;;8.73;6.40;;;;;;;;;;4975671;28;20325;-78
2021/12/06 00:53:40;;;;;;;5.97;5.20;;;;;;;;;;4976091;28;20218;-78
2021/12/06 00:56:06;;;;;;;7.75;6.32;;;;;;;;;;4975025;28;20266;-79
2021/12/06 00:58:32;;;;;;;6.38;5.72;;;;;;;;;;4976192;28;20185;-79
2021/12/06 01:00:59;;;;;;;6.82;5.85;;;;;;;;;;4975755;28;20196;-77
2021/12/06 01:03:27;;;;;;;7.95;6.13;;;;;;;;;;4975973;28;20177;-78
2021/12/06 01:05:53;;;;;;;8.70;6.72;;;;;;;;;;4976082;28;20245;-76
2021/12/06 01:08:20;;;;;;;7.43;6.05;;;;;;;;;;4974892;28;20194;-79
2021/12/06 01:10:46;;;;;;;8.10;6.93;;;;;;;;;;4975497;28;20196;-78
2021/12/06 01:13:12;;;;;;;6.80;6.10;;;;;;;;;;4976126;28;20203;-76
2021/12/06 01:15:38;;;;;;;9.30;6.30;;;;;;;;;;4976474;28;20254;-77
2021/12/06 01:18:06;;;;;;;10.45;6.80;;;;;;;;;;4976267;28;20179;-79
2021/12/06 01:20:35;;;;;;;11.68;6.88;;;;;;;;;;4975523;28;20195;-79
2021/12/06 01:23:07;;;;;;;11.32;6.07;;;;;;;;;;4975457;28;20180;-77
2021/12/06 01:25:45;;;;;;;8.13;5.75;;;;;;;;;;4975798;28;20269;-79
2021/12/06 01:41:33;;;;;;;7.50;5.80;;;;;;;;;;4974978;28;20207;-77
2021/12/06 01:44:09;;;;;;;7.43;6.53;;;;;;;;;;4990210;28;20179;-76
2021/12/06 01:46:36;;;;;;;7.57;6.20;;;;;;;;;;4975186;28;20194;-77
2021/12/06 01:49:03;;;;;;;8.48;7.03;;;;;;;;;;4975006;28;20187;-79
2021/12/06 01:51:29;;;;;;;9.48;6.60;;;;;;;;;;4974606;28;20229;-79
2021/12/06 01:53:55;;;;;;;11.05;6.97;;;;;;;;;;4975020;28;20237;-80
2021/12/06 01:56:21;;;;;;;6.82;5.53;;;;;;;;;;4975255;28;20587;-75
2021/12/06 01:58:47;;;;;;;8.77;7.18;;;;;;;;;;4975132;28;20178;-79
2021/12/06 02:01:13;;;;;;;7.68;6.30;;;;;;;;;;4974565;28;20213;-77
2021/12/06 02:03:39;;;;;;;10.93;6.63;;;;;;;;;;4989968;28;20180;-80
2021/12/06 02:06:05;;;;;;;6.97;6.05;;;;;;;;;;4974884;28;20183;-78
2021/12/06 02:08:31;;;;;;;7.88;6.10;;;;;;;;;;4974920;28;20210;-78
2021/12/06 02:11:02;;;;;;;7.72;5.90;;;;;;;;;;4974585;28;20207;-79
2021/12/06 02:13:33;;;;;;;7.22;5.85;;;;;;;;;;4974699;28;20585;-80
2021/12/06 02:15:59;;;;;;;6.97;5.63;;;;;;;;;;4974845;28;20186;-80
2021/12/06 02:21:10;;;;;;;6.68;5.90;;;;;;;;;;4974320;28;20755;-80
2021/12/06 02:23:36;;;;;;;6.10;5.50;;;;;;;;;;4974785;28;20660;-78
2021/12/06 02:26:02;;;;;;;8.00;5.83;;;;;;;;;;4974728;28;20211;-78
2021/12/06 02:28:28;;;;;;;7.07;6.10;;;;;;;;;;4974751;28;20430;-81
2021/12/06 02:30:54;;;;;;;7.72;6.30;;;;;;;;;;4974151;28;20202;-80
2021/12/06 02:33:21;;;;;;;8.27;6.20;;;;;;;;;;4974411;28;20651;-80
2021/12/06 02:35:47;;;;;;;9.98;7.47;;;;;;;;;;4973849;28;20186;-80
2021/12/06 02:38:13;;;;;;;7.75;6.38;;;;;;;;;;4974534;28;20188;-79
2021/12/06 02:40:41;;;;;;;8.52;5.93;;;;;;;;;;4974216;28;20215;-80
2021/12/06 02:43:08;;;;;;;6.65;5.78;;;;;;;;;;4989360;28;20191;-79
2021/12/06 02:45:37;;;;;;;7.20;5.65;;;;;;;;;;4974229;28;20263;-78
2021/12/06 02:48:05;;;;;;;8.57;6.35;;;;;;;;;;4974330;28;20179;-79
2021/12/06 02:50:33;;;;;;;10.85;6.95;;;;;;;;;;4988742;28;20215;-78
2021/12/06 02:52:59;;;;;;;7.32;6.22;;;;;;;;;;4974345;28;20203;-80
2021/12/06 02:55:35;;;;;;;9.32;6.78;;;;;;;;;;4974237;28;20179;-80
2021/12/06 02:58:13;;;;;;;8.25;6.13;;;;;;;;;;4989295;28;20217;-79
2021/12/06 03:00:39;;;;;;;11.50;6.20;;;;;;;;;;4973965;28;20189;-77
2021/12/06 03:03:05;;;;;;;6.95;6.25;;;;;;;;;;4989123;28;20649;-77
2021/12/06 03:05:31;;;;;;;8.15;5.85;;;;;;;;;;4974397;28;20182;-78
2021/12/06 03:08:00;;;;;;;8.50;5.93;;;;;;;;;;4974377;28;20175;-79
2021/12/06 03:10:26;;;;;;;8.43;6.85;;;;;;;;;;4972881;28;20341;-79
2021/12/06 03:12:52;;;;;;;9.80;7.55;;;;;;;;;;4974275;28;20180;-79
2021/12/06 03:15:18;;;;;;;8.98;7.68;;;;;;;;;;4974281;28;20631;-81
2021/12/06 03:17:46;;;;;;;7.82;7.05;;;;;;;;;;4974116;28;20175;-80
2021/12/06 03:20:14;;;;;;;8.05;6.80;;;;;;;;;;4973916;28;20236;-79
2021/12/06 03:22:40;;;;;;;7.95;7.15;;;;;;;;;;4974244;28;20255;-79
2021/12/06 03:25:07;;;;;;;15.13;6.60;;;;;;;;;;4974074;28;20182;-78
2021/12/06 03:27:33;;;;;;;9.25;6.63;;;;;;;;;;4974116;28;20263;-80
2021/12/06 03:29:59;;;;;;;6.45;5.85;;;;;;;;;;4988553;28;20603;-78
2021/12/06 03:32:25;;;;;;;8.68;6.18;;;;;;;;;;4974074;28;20221;-80
2021/12/06 03:34:51;;;;;;;7.40;6.47;;;;;;;;;;4988877;28;20249;-80
2021/12/06 03:37:17;;;;;;;8.10;7.15;;;;;;;;;;4974123;28;20415;-80
2021/12/06 03:39:44;;;;;;;8.27;6.63;;;;;;;;;;4973567;28;20187;-79
2021/12/06 03:42:11;;;;;;;7.47;6.40;;;;;;;;;;4988768;28;20439;-79
2021/12/06 03:44:38;;;;;;;8.52;7.45;;;;;;;;;;4973906;28;20183;-80
2021/12/06 03:47:06;;;;;;;11.45;6.70;;;;;;;;;;4976407;28;20558;-78
2021/12/06 03:49:32;;;;;;;7.75;6.97;;;;;;;;;;4977024;28;20560;-80
2021/12/06 03:51:58;;;;;;;8.15;6.55;;;;;;;;;;4976965;28;20218;-78
2021/12/06 03:54:26;;;;;;;8.10;5.93;;;;;;;;;;4976103;28;20683;-77
2021/12/06 03:56:53;;;;;;;7.72;6.93;;;;;;;;;;4977527;28;20494;-79
2021/12/06 03:59:19;;;;;;;7.90;6.82;;;;;;;;;;4976926;28;20195;-78
2021/12/06 04:01:47;;;;;;;9.75;6.97;;;;;;;;;;4977040;28;20566;-77
2021/12/06 04:04:13;;;;;;;12.65;8.20;;;;;;;;;;4977099;28;20707;-79
2021/12/06 04:06:40;;;;;;;9.38;8.25;;;;;;;;;;4977145;28;20183;-77
2021/12/06 04:09:07;;;;;;;8.70;6.43;;;;;;;;;;4977139;28;20198;-79
2021/12/06 04:11:33;;;;;;;9.13;7.03;;;;;;;;;;4976745;28;20213;-78
2021/12/06 04:13:59;;;;;;;8.98;6.93;;;;;;;;;;4977118;28;20752;-77
2021/12/06 04:16:26;;;;;;;9.68;7.57;;;;;;;;;;4977246;28;20184;-79
2021/12/06 04:18:52;;;;;;;8.38;7.40;;;;;;;;;;4976035;28;20641;-80
2021/12/06 04:21:18;;;;;;;9.45;6.80;;;;;;;;;;4976443;28;20237;-78
2021/12/06 04:23:45;;;;;;;9.13;7.53;;;;;;;;;;4976926;28;20206;-76
2021/12/06 04:26:11;;;;;;;9.70;7.38;;;;;;;;;;4976799;28;20184;-78
2021/12/06 04:28:42;;;;;;;7.88;6.32;;;;;;;;;;4976668;28;20187;-79
2021/12/06 04:31:08;;;;;;;8.10;6.72;;;;;;;;;;4976476;28;20242;-79
2021/12/06 04:33:34;;;;;;;9.55;6.82;;;;;;;;;;4976416;28;20198;-78
2021/12/06 04:36:00;;;;;;;11.27;6.70;;;;;;;;;;4975391;28;20191;-77
2021/12/06 04:38:27;;;;;;;10.82;6.82;;;;;;;;;;4976387;28;20414;-79
2021/12/06 04:40:53;;;;;;;7.95;6.60;;;;;;;;;;4974934;28;20210;-78
2021/12/06 04:43:19;;;;;;;9.95;8.02;;;;;;;;;;4976441;28;20190;-78
2021/12/06 04:45:45;;;;;;;7.50;6.70;;;;;;;;;;4976368;28;20190;-78
2021/12/06 04:48:11;;;;;;;14.30;7.25;;;;;;;;;;4976203;28;20632;-77
2021/12/06 04:50:38;;;;;;;11.77;7.60;;;;;;;;;;4975682;28;20254;-78
2021/12/06 04:53:09;;;;;;;7.60;6.25;;;;;;;;;;4976430;28;20240;-78
2021/12/06 04:55:43;;;;;;;9.38;7.00;;;;;;;;;;4976292;28;20205;-79
2021/12/06 04:58:11;;;;;;;10.93;7.15;;;;;;;;;;4975642;28;20539;-80
2021/12/06 05:00:39;;;;;;;7.45;6.13;;;;;;;;;;4975736;28;20264;-78
2021/12/06 05:03:06;;;;;;;8.57;7.15;;;;;;;;;;4976298;28;20212;-79
2021/12/06 05:05:43;;;;;;;8.80;7.90;;;;;;;;;;4977302;28;20545;-78
2021/12/06 05:08:18;;;;;;;10.80;7.70;;;;;;;;;;4992953;28;20181;-77
2021/12/06 05:10:45;;;;;;;12.63;7.40;;;;;;;;;;4977460;28;20193;-78
2021/12/06 05:13:11;;;;;;;10.57;7.53;;;;;;;;;;4977357;28;20230;-78
2021/12/06 05:15:37;;;;;;;12.85;8.98;;;;;;;;;;4974945;28;20186;-78
2021/12/06 05:18:04;;;;;;;10.10;7.80;;;;;;;;;;4975886;28;20179;-77
2021/12/06 05:20:29;;;;;;;9.93;8.80;;;;;;;;;;4974296;28;20563;-78
2021/12/06 05:22:56;;;;;;;11.93;8.90;;;;;;;;;;4975706;28;20179;-76
2021/12/06 05:25:23;;;;;;;13.30;9.63;;;;;;;;;;4975584;28;20500;-78
2021/12/06 05:27:49;;;;;;;15.13;9.93;;;;;;;;;;4975554;28;20593;-79
2021/12/06 05:30:16;;;;;;;12.00;9.98;;;;;;;;;;4975188;28;20198;-77
2021/12/06 05:32:43;;;;;;;14.25;10.07;;;;;;;;;;4975561;28;20366;-79
2021/12/06 05:35:10;;;;;;;11.57;9.38;;;;;;;;;;4990406;28;20222;-77
2021/12/06 05:37:41;;;;;;;16.02;9.68;;;;;;;;;;4975529;28;20653;-77
2021/12/06 05:40:11;;;;;;;10.60;8.80;;;;;;;;;;4990047;28;20319;-79
2021/12/06 05:42:37;;;;;;;18.15;9.90;;;;;;;;;;4990247;28;20182;-77
2021/12/06 05:45:03;;;;;;;15.05;10.65;;;;;;;;;;4975322;28;20190;-77
2021/12/06 05:47:29;;;;;;;12.77;9.55;;;;;;;;;;4975286;28;20189;-78
2021/12/06 05:49:55;;;;;;;12.75;9.52;;;;;;;;;;4974859;28;20183;-78
2021/12/06 05:52:21;;;;;;;19.88;9.30;;;;;;;;;;4975060;28;20196;-79
2021/12/06 05:54:47;;;;;;;10.55;8.93;;;;;;;;;;4974925;28;20265;-78
2021/12/06 05:57:14;;;;;;;13.10;10.25;;;;;;;;;;4975003;28;20183;-78
2021/12/06 05:59:41;;;;;;;15.10;10.07;;;;;;;;;;4974626;28;20179;-79
2021/12/06 06:02:07;;;;;;;16.73;9.02;;;;;;;;;;4975289;28;20287;-76
2021/12/06 06:04:34;;;;;;;10.50;8.93;;;;;;;;;;4975206;28;20239;-79
2021/12/06 06:07:00;;;;;;;14.70;9.30;;;;;;;;;;4974918;28;20529;-77
2021/12/06 06:09:26;;;;;;;13.00;9.80;;;;;;;;;;4974030;28;20189;-77
2021/12/06 06:11:52;;;;;;;15.38;9.00;;;;;;;;;;4974932;28;20298;-77
2021/12/06 06:14:18;;;;;;;11.65;9.63;;;;;;;;;;4974872;28;20238;-78
2021/12/06 06:16:52;;;;;;;15.25;10.48;;;;;;;;;;4974935;28;20178;-79
2021/12/06 06:19:23;;;;;;;12.63;9.00;;;;;;;;;;4974528;28;20172;-78
2021/12/06 06:21:49;;;;;;;13.25;9.45;;;;;;;;;;4989600;28;20201;-76
2021/12/06 06:24:15;;;;;;;11.80;8.65;;;;;;;;;;4974931;28;20592;-77
2021/12/06 06:26:41;;;;;;;12.70;9.07;;;;;;;;;;4989552;28;20221;-76
2021/12/06 06:29:08;;;;;;;13.10;9.93;;;;;;;;;;4974653;28;20531;-77
2021/12/06 06:31:34;;;;;;;12.85;9.82;;;;;;;;;;4989470;28;20210;-78
2021/12/06 06:34:00;;;;;;;11.43;9.25;;;;;;;;;;4974818;28;20261;-78
2021/12/06 06:36:26;;;;;;;12.65;9.68;;;;;;;;;;4974676;28;20300;-76
2021/12/06 06:38:52;;;;;;;13.95;8.80;;;;;;;;;;4973455;28;20193;-79
2021/12/06 06:41:18;;;;;;;14.48;10.57;;;;;;;;;;4974149;28;20276;-79
2021/12/06 06:43:44;;;;;;;14.45;10.40;;;;;;;;;;4989397;28;20614;-77
2021/12/06 06:46:10;;;;;;;13.88;11.30;;;;;;;;;;4989392;28;20180;-77
2021/12/06 06:48:37;;;;;;;15.48;9.77;;;;;;;;;;4974295;28;20204;-76
2021/12/06 06:51:03;;;;;;;12.57;10.00;;;;;;;;;;4973798;28;20241;-79
2021/12/06 06:53:29;;;;;;;15.38;10.75;;;;;;;;;;4974233;28;20254;-78
2021/12/06 06:55:56;;;;;;;12.85;10.98;;;;;;;;;;4974522;28;20170;-80
2021/12/06 06:58:22;;;;;;;13.38;11.20;;;;;;;;;;4974696;28;20186;-77
2021/12/06 07:00:48;;;;;;;16.50;11.77;;;;;;;;;;4988814;28;20200;-78
2021/12/06 07:03:14;;;;;;;20.73;13.70;;;;;;;;;;4974232;28;20710;-78
2021/12/06 07:05:40;;;;;;;14.98;11.35;;;;;;;;;;4989348;28;20686;-77
2021/12/06 07:08:06;;;;;;;17.30;11.50;;;;;;;;;;4974278;28;20185;-78
2021/12/06 07:10:32;;;;;;;13.05;10.82;;;;;;;;;;4974041;28;20229;-79
2021/12/06 07:13:00;;;;;;;14.73;11.52;;;;;;;;;;4974445;28;20182;-77
2021/12/06 07:15:28;;;;;;;15.30;12.40;;;;;;;;;;4974047;28;20264;-77
2021/12/06 07:17:55;;;;;;;16.65;12.48;;;;;;;;;;4974488;28;20537;-80
2021/12/06 07:20:22;;;;;;;17.67;12.85;;;;;;;;;;4974179;28;20200;-77
2021/12/06 07:22:51;;;;;;;19.15;14.23;;;;;;;;;;4978922;28;20217;-78
2021/12/06 07:25:18;;;;;;;18.13;12.80;;;;;;;;;;4979063;28;20201;-79
2021/12/06 07:27:44;;;;;;;20.30;13.75;;;;;;;;;;4977872;28;20191;-79
2021/12/06 07:30:11;;;;;;;26.90;15.45;;;;;;;;;;4977444;28;20247;-80
2021/12/06 07:32:37;;;;;;;22.88;14.48;;;;;;;;;;4976815;28;20194;-78
2021/12/06 07:35:04;;;;;;;23.10;14.90;;;;;;;;;;4977912;28;20210;-78
2021/12/06 07:37:30;;;;;;;25.50;15.98;;;;;;;;;;4992502;28;20234;-80
2021/12/06 07:39:56;;;;;;;25.90;16.90;;;;;;;;;;4992166;28;20186;-78
2021/12/06 07:42:22;;;;;;;26.35;18.83;;;;;;;;;;4996215;28;20603;-78
2021/12/06 07:44:48;;;;;;;34.00;17.80;;;;;;;;;;4997017;28;20184;-79
2021/12/06 07:47:15;;;;;;;26.08;18.50;;;;;;;;;;4996536;28;20182;-78
2021/12/06 07:49:43;;;;;;;28.98;17.25;;;;;;;;;;4996450;28;20184;-79
2021/12/06 07:52:09;;;;;;;30.58;17.33;;;;;;;;;;4982839;28;20771;-78
2021/12/06 07:54:35;;;;;;;27.40;17.90;;;;;;;;;;4996458;28;20213;-78
2021/12/06 07:57:01;;;;;;;30.60;20.10;;;;;;;;;;4996525;28;20655;-79
2021/12/06 07:59:28;;;;;;;28.63;19.35;;;;;;;;;;4993322;28;20177;-78
2021/12/06 08:01:54;;;;;;;27.67;18.50;;;;;;;;;;4996114;28;20195;-78
2021/12/06 08:04:20;;;;;;;34.80;20.02;;;;;;;;;;4996283;28;20265;-78
2021/12/06 08:06:46;;;;;;;25.05;18.52;;;;;;;;;;4996437;28;20188;-80
2021/12/06 08:09:14;;;;;;;40.08;20.60;;;;;;;;;;4996194;28;20190;-79
2021/12/06 08:11:40;;;;;;;32.00;20.38;;;;;;;;;;4995849;28;20195;-79
2021/12/06 08:14:06;;;;;;;30.10;19.95;;;;;;;;;;4995152;28;20717;-79
2021/12/06 08:16:37;;;;;;;35.97;20.33;;;;;;;;;;4995156;28;20174;-80
2021/12/06 08:19:03;;;;;;;29.70;19.60;;;;;;;;;;4995281;28;20446;-79
2021/12/06 08:21:29;;;;;;;36.33;22.20;;;;;;;;;;4995603;28;20205;-77
2021/12/06 08:23:56;;;;;;;40.10;20.52;;;;;;;;;;4994603;28;20186;-79
2021/12/06 08:26:23;;;;;;;34.90;22.73;;;;;;;;;;4995972;28;20186;-78
2021/12/06 08:28:49;;;;;;;42.67;23.08;;;;;;;;;;4995716;28;20253;-77
2021/12/06 08:31:18;;;;;;;36.08;21.52;;;;;;;;;;4994975;28;20210;-77
2021/12/06 08:33:44;;;;;;;37.85;21.92;;;;;;;;;;4985015;28;20208;-78
2021/12/06 08:36:10;;;;;;;37.72;22.55;;;;;;;;;;4984370;28;20188;-79
2021/12/06 08:38:37;;;;;;;48.33;25.63;;;;;;;;;;4995166;28;20258;-80
2021/12/06 08:41:05;;;;;;;58.85;23.75;;;;;;;;;;4995004;28;20249;-80
2021/12/06 08:43:31;;;;;;;73.57;24.77;;;;;;;;;;4995474;28;20190;-78
2021/12/06 08:46:02;;;;;;;46.30;23.17;;;;;;;;;;4995371;28;20207;-80
2021/12/06 08:48:30;;;;;;;43.25;23.73;;;;;;;;;;4995688;28;20279;-81
2021/12/06 08:50:57;;;;;;;59.47;24.65;;;;;;;;;;4995006;28;20211;-77
2021/12/06 08:53:23;;;;;;;55.05;23.92;;;;;;;;;;4995760;28;20200;-78
2021/12/06 08:55:50;;;;;;;65.38;28.15;;;;;;;;;;4995564;28;20179;-79
2021/12/06 08:58:16;;;;;;;65.80;25.13;;;;;;;;;;4995471;28;20190;-79
2021/12/06 09:00:42;;;;;;;49.65;23.70;;;;;;;;;;4994172;28;20558;-78
2021/12/06 09:03:08;;;;;;;53.55;23.05;;;;;;;;;;4996365;28;20640;-79
2021/12/06 09:05:40;;;;;;;68.10;26.75;;;;;;;;;;4997821;28;20184;-78
2021/12/06 09:08:06;;;;;;;54.08;24.83;;;;;;;;;;4997715;28;20233;-77
2021/12/06 09:10:32;;;;;;;57.30;24.92;;;;;;;;;;4995233;28;20631;-81
2021/12/06 09:12:58;;;;;;;56.22;26.00;;;;;;;;;;4995465;28;20565;-80
2021/12/06 09:15:24;;;;;;;67.22;28.13;;;;;;;;;;4995293;28;20172;-78
2021/12/06 09:17:52;;;;;;;52.13;24.30;;;;;;;;;;4995315;28;20184;-80
2021/12/06 09:20:18;;;;;;;51.22;24.45;;;;;;;;;;4994687;28;20217;-80
2021/12/06 09:22:47;;;;;;;58.28;24.45;;;;;;;;;;4995711;28;20168;-79
2021/12/06 09:25:13;;;;;;;53.90;24.45;;;;;;;;;;4995266;28;20171;-77
2021/12/06 09:27:40;;;;;;;92.45;24.80;;;;;;;;;;4994857;28;20182;-79
2021/12/06 09:30:09;;;;;;;60.53;22.75;;;;;;;;;;4994802;28;20197;-79
2021/12/06 09:32:35;;;;;;;48.85;22.13;;;;;;;;;;4994869;28;20575;-78
2021/12/06 09:35:03;;;;;;;48.50;22.75;;;;;;;;;;4994881;28;20210;-79
2021/12/06 09:37:29;;;;;;;42.92;23.70;;;;;;;;;;4993473;28;20265;-80
2021/12/06 09:39:57;;;;;;;46.53;24.08;;;;;;;;;;4994188;28;20195;-77
2021/12/06 09:42:23;;;;;;;53.67;24.38;;;;;;;;;;4994559;28;20183;-78
2021/12/06 09:44:49;;;;;;;45.80;24.15;;;;;;;;;;4994684;28;20207;-77
2021/12/06 09:47:16;;;;;;;54.97;24.55;;;;;;;;;;4994179;28;20188;-80
2021/12/06 09:49:42;;;;;;;61.25;24.20;;;;;;;;;;4993681;28;20198;-77
2021/12/06 09:52:09;;;;;;;45.42;23.00;;;;;;;;;;4994215;28;20638;-78
2021/12/06 09:54:36;;;;;;;49.92;23.70;;;;;;;;;;4994244;28;20193;-78
2021/12/06 09:57:03;;;;;;;43.25;24.83;;;;;;;;;;4994633;28;20182;-76
2021/12/06 09:59:30;;;;;;;53.25;25.38;;;;;;;;;;4993223;28;20217;-79
2021/12/06 10:02:08;;;;;;;42.55;22.35;;;;;;;;;;4994221;28;20202;-79
2021/12/06 10:04:38;;;;;;;42.22;23.20;;;;;;;;;;4994205;28;20221;-77
2021/12/06 10:07:07;;;;;;;36.70;21.48;;;;;;;;;;4994357;28;20167;-78
2021/12/06 10:09:33;;;;;;;40.05;22.10;;;;;;;;;;4993938;28;20177;-76
2021/12/06 10:12:00;;;;;;;36.65;19.48;;;;;;;;;;4992968;28;20199;-77
2021/12/06 10:14:27;;;;;;;40.22;23.50;;;;;;;;;;4994216;28;20231;-78
2021/12/06 10:16:53;;;;;;;39.20;21.25;;;;;;;;;;4994208;28;20202;-76
2021/12/06 10:19:21;;;;;;;35.90;20.73;;;;;;;;;;4993904;28;20183;-78
2021/12/06 10:21:47;;;;;;;31.35;18.77;;;;;;;;;;4993952;28;20672;-79
2021/12/06 10:24:19;;;;;;;45.47;22.30;;;;;;;;;;4992972;28;20183;-77
2021/12/06 10:26:46;;;;;;;32.47;19.27;;;;;;;;;;4994047;28;20537;-80
2021/12/06 10:29:20;;;;;;;34.40;19.27;;;;;;;;;;4993744;28;20189;-78
2021/12/06 10:31:47;;;;;;;35.10;19.15;;;;;;;;;;4992725;28;20766;-78
2021/12/06 10:34:17;;;;;;;35.00;20.05;;;;;;;;;;4993832;28;20203;-78
2021/12/06 10:36:43;;;;;;;25.45;16.95;;;;;;;;;;4993939;28;20178;-78
2021/12/06 10:39:10;;;;;;;28.17;17.15;;;;;;;;;;4992655;28;20180;-79
2021/12/06 10:41:37;;;;;;;32.97;16.10;;;;;;;;;;4993705;28;20567;-76
2021/12/06 10:44:11;;;;;;;24.48;15.80;;;;;;;;;;4993808;28;20180;-77
2021/12/06 10:46:39;;;;;;;28.10;15.95;;;;;;;;;;4993856;28;20178;-78
2021/12/06 10:49:07;;;;;;;23.80;15.07;;;;;;;;;;4994211;28;20187;-79
2021/12/06 10:51:33;;;;;;;21.63;14.80;;;;;;;;;;4993440;28;20225;-79
2021/12/06 10:54:05;;;;;;;21.35;14.80;;;;;;;;;;4993706;28;20203;-77
2021/12/06 10:56:42;;;;;;;20.13;13.75;;;;;;;;;;4995742;28;20703;-78
2021/12/06 10:59:19;;;;;;;18.80;13.10;;;;;;;;;;4997740;28;20648;-80
2021/12/06 11:01:46;;;;;;;18.00;11.95;;;;;;;;;;4997952;28;20187;-78
2021/12/06 11:04:14;;;;;;;18.98;12.70;;;;;;;;;;4997763;28;20217;-79
2021/12/06 11:06:43;;;;;;;14.68;12.30;;;;;;;;;;4997808;28;20674;-76
2021/12/06 11:09:10;;;;;;;15.90;11.25;;;;;;;;;;4997553;28;20597;-77
2021/12/06 11:11:39;;;;;;;15.32;11.15;;;;;;;;;;4997278;28;20195;-79
2021/12/06 11:14:10;;;;;;;14.65;10.77;;;;;;;;;;4997659;28;20267;-79
2021/12/06 11:16:47;;;;;;;14.85;10.75;;;;;;;;;;4997515;28;20254;-79
2021/12/06 11:19:15;;;;;;;15.13;10.30;;;;;;;;;;4996954;28;20187;-79
2021/12/06 11:21:42;;;;;;;16.27;11.93;;;;;;;;;;4997216;28;20789;-80
2021/12/06 11:24:08;;;;;;;15.63;10.70;;;;;;;;;;4997144;28;20180;-79
2021/12/06 11:26:35;;;;;;;14.60;11.10;;;;;;;;;;4997184;28;20402;-78
2021/12/06 11:29:05;;;;;;;14.05;9.43;;;;;;;;;;4997166;28;20505;-78
2021/12/06 11:31:31;;;;;;;17.00;9.40;;;;;;;;;;4996681;28;20286;-79
2021/12/06 11:34:01;;;;;;;10.37;8.70;;;;;;;;;;4997044;28;20910;-77
2021/12/06 11:36:30;;;;;;;10.60;8.63;;;;;;;;;;4997144;28;20411;-77
2021/12/06 11:39:04;;;;;;;10.52;9.20;;;;;;;;;;4995664;28;20183;-77
2021/12/06 11:41:30;;;;;;;11.60;7.90;;;;;;;;;;4996610;28;20203;-76
2021/12/06 11:43:58;;;;;;;7.93;6.43;;;;;;;;;;4996875;28;20238;-78
2021/12/06 11:46:28;;;;;;;10.27;7.23;;;;;;;;;;4996917;28;20190;-76
2021/12/06 11:48:54;;;;;;;11.85;7.47;;;;;;;;;;4996674;28;20402;-77
2021/12/06 11:51:20;;;;;;;7.10;6.03;;;;;;;;;;4994970;28;20245;-78
2021/12/06 11:53:49;;;;;;;6.20;5.23;;;;;;;;;;4996513;28;20473;-77
2021/12/06 11:56:15;;;;;;;5.40;4.70;;;;;;;;;;4996542;28;20419;-78
2021/12/06 11:58:49;;;;;;;8.63;5.53;;;;;;;;;;4996642;28;20878;-78
2021/12/06 12:01:18;;;;;;;5.10;4.60;;;;;;;;;;4996091;28;20423;-79
2021/12/06 12:03:45;;;;;;;5.25;4.75;;;;;;;;;;4996309;28;20427;-78
2021/12/06 12:06:40;;;;;;;4.47;3.80;;;;;;;;;;4996492;28;20182;-76
2021/12/06 12:09:28;;;;;;;6.50;3.70;;;;;;;;;;4986782;28;20420;-78
2021/12/06 12:12:05;;;;;;;4.50;4.10;;;;;;;;;;4996196;28;20557;-78
2021/12/06 12:14:34;;;;;;;5.60;4.73;;;;;;;;;;4995367;28;20982;-78
2021/12/06 12:17:01;;;;;;;5.20;4.13;;;;;;;;;;4996527;28;20406;-78
2021/12/06 12:19:28;;;;;;;5.85;4.07;;;;;;;;;;4996195;28;20411;-79
2021/12/06 12:21:54;;;;;;;5.15;4.40;;;;;;;;;;4996236;28;20203;-77
2021/12/06 12:24:20;;;;;;;4.53;3.70;;;;;;;;;;4996322;28;20177;-78
2021/12/06 12:27:02;;;;;;;3.95;3.50;;;;;;;;;;4996249;28;20632;-76
2021/12/06 12:29:28;;;;;;;4.05;3.50;;;;;;;;;;4995900;28;20645;-78
2021/12/06 12:31:57;;;;;;;10.73;7.95;;;;;;;;;;4995809;28;20206;-78
2021/12/06 12:34:25;;;;;;;15.52;9.98;;;;;;;;;;4996078;28;20195;-78
2021/12/06 12:36:51;;;;;;;16.52;10.70;;;;;;;;;;4994753;28;20187;-77
2021/12/06 12:39:19;;;;;;;18.45;11.82;;;;;;;;;;4995647;28;20199;-77
2021/12/06 12:41:54;;;;;;;16.65;11.30;;;;;;;;;;4994517;28;20734;-77
2021/12/06 12:44:21;;;;;;;16.27;11.43;;;;;;;;;;4996048;28;20182;-77
2021/12/06 12:46:48;;;;;;;12.13;9.60;;;;;;;;;;4996007;28;20186;-78
2021/12/06 12:49:18;;;;;;;12.82;8.93;;;;;;;;;;4995464;28;20222;-78
2021/12/06 12:51:49;;;;;;;12.50;9.20;;;;;;;;;;4995576;28;20222;-77
2021/12/06 12:54:27;;;;;;;13.50;9.60;;;;;;;;;;4995537;28;20202;-77
2021/12/06 12:56:55;;;;;;;12.65;9.82;;;;;;;;;;4995726;28;20167;-78
2021/12/06 12:59:21;;;;;;;14.05;9.10;;;;;;;;;;4995296;28;20167;-78
2021/12/06 13:02:10;;;;;;;13.27;8.73;;;;;;;;;;4995499;28;20187;-78
2021/12/06 13:04:55;;;;;;;10.30;6.95;;;;;;;;;;4990172;28;20188;-77
2021/12/06 13:07:21;;;;;;;10.57;7.07;;;;;;;;;;4995490;28;20182;-78
2021/12/06 13:09:47;;;;;;;12.73;7.80;;;;;;;;;;4993982;28;20571;-77
2021/12/06 13:12:15;;;;;;;9.02;8.00;;;;;;;;;;4995380;28;20432;-78
2021/12/06 13:14:49;;;;;;;9.13;6.55;;;;;;;;;;4993462;28;20230;-76
2021/12/06 13:17:25;;;;;;;7.57;6.20;;;;;;;;;;4976033;28;20176;-77
2021/12/06 13:20:06;;;;;;;7.15;6.45;;;;;;;;;;4975021;28;20534;-79
2021/12/06 13:22:33;;;;;;;6.80;5.20;;;;;;;;;;4975718;28;20258;-77
2021/12/06 13:25:05;;;;;;;6.70;5.38;;;;;;;;;;4975525;28;20195;-79
2021/12/06 13:27:33;;;;;;;13.15;6.43;;;;;;;;;;4975813;28;20647;-77
2021/12/06 13:30:31;;;;;;;8.73;6.85;;;;;;;;;;4975067;28;20176;-77
2021/12/06 13:32:58;;;;;;;8.93;6.45;;;;;;;;;;4964145;28;20199;-76
2021/12/06 13:35:32;;;;;;;8.73;6.15;;;;;;;;;;4975414;28;20571;-79
2021/12/06 13:38:01;;;;;;;8.65;6.32;;;;;;;;;;4975330;28;20171;-79
2021/12/06 13:40:28;;;;;;;8.20;6.60;;;;;;;;;;4975061;28;20247;-79
2021/12/06 13:42:54;;;;;;;9.23;7.00;;;;;;;;;;4975467;28;20180;-78
2021/12/06 13:45:21;;;;;;;8.07;5.70;;;;;;;;;;4975540;28;20549;-79
2021/12/06 13:47:48;;;;;;;6.35;4.53;;;;;;;;;;4975080;28;20704;-78
2021/12/06 13:50:16;;;;;;;9.15;5.55;;;;;;;;;;4974542;28;20286;-77
2021/12/06 13:52:43;;;;;;;6.78;4.60;;;;;;;;;;4975072;28;20194;-77
2021/12/06 13:55:24;;;;;;;6.85;5.05;;;;;;;;;;4974987;28;20634;-76
2021/12/06 13:57:53;;;;;;;8.82;6.00;;;;;;;;;;4973805;28;20184;-77
2021/12/06 14:00:24;;;;;;;7.97;5.10;;;;;;;;;;4974559;28;20195;-78
2021/12/06 14:02:51;;;;;;;5.00;4.00;;;;;;;;;;4975027;28;20168;-78
2021/12/06 14:05:17;;;;;;;5.22;4.10;;;;;;;;;;4975032;28;20228;-76
2021/12/06 14:07:43;;;;;;;4.50;2.85;;;;;;;;;;4974961;28;20188;-79
2021/12/06 14:10:13;;;;;;;5.10;3.22;;;;;;;;;;4974472;28;20202;-77
2021/12/06 14:12:41;;;;;;;3.83;3.38;;;;;;;;;;4974920;28;20614;-76
2021/12/06 14:15:55;;;;;;;4.55;3.45;;;;;;;;;;4974751;28;20203;-76
2021/12/06 14:17:55;;;;;;;4.13;3.45;;;;;;;;;;4970803;28;20192;-77
2021/12/06 14:20:21;;;;;;;4.25;3.60;;;;;;;;;;4974366;28;20192;-76
2021/12/06 14:22:48;;;;;;;6.03;3.85;;;;;;;;;;4974902;28;20700;-75
2021/12/06 14:25:16;;;;;;;9.27;4.38;;;;;;;;;;4973677;28;20468;-78
2021/12/06 14:27:43;;;;;;;4.03;3.58;;;;;;;;;;4973476;28;20523;-77
2021/12/06 14:30:14;;;;;;;5.93;4.35;;;;;;;;;;4973858;28;20195;-78
2021/12/06 14:32:45;;;;;;;5.43;4.32;;;;;;;;;;4974438;28;20184;-77
2021/12/06 14:35:11;;;;;;;5.10;3.83;;;;;;;;;;4974623;28;20236;-78
2021/12/06 14:37:39;;;;;;;5.65;3.80;;;;;;;;;;4974585;28;20176;-79
2021/12/06 14:40:06;;;;;;;5.43;4.03;;;;;;;;;;4974045;28;20207;-75
2021/12/06 14:42:32;;;;;;;4.90;3.70;;;;;;;;;;4974398;28;20225;-78
2021/12/06 14:45:00;;;;;;;8.13;4.25;;;;;;;;;;4973077;28;20561;-76
2021/12/06 14:47:48;;;;;;;5.38;4.40;;;;;;;;;;4974601;28;20176;-77
2021/12/06 14:50:17;;;;;;;6.38;4.65;;;;;;;;;;4973935;28;20199;-75
2021/12/06 14:52:46;;;;;;;6.97;4.38;;;;;;;;;;4974099;28;20213;-76